SKU011 KDEN-KLAS
Flight info
| Callsign | SKU011 |
|---|---|
| Flight time | N/A |
| Altitude | 36000 |
| Route | CONNR7 WERNR ZAKRY CHESZ GGAPP CHOWW3 |
| Aircraft | A320/M-SDE3FGHIRWY/LB1 |
Departure
| Time | 2026-04-30 20:48 |
|---|---|
| Airport | Denver International Airport (KDEN) |
Arrival
| Time | N/A |
|---|---|
| Airport | Harry Reid International Airport (KLAS) |
| Time | Latitude | Longitude | Altitude | Speed | Heading |
|---|---|---|---|---|---|
| 2026-04-30 20:32 | 39.85938 | -104.67754 | 5380 ft | 0 kts | 180° |
| 2026-04-30 20:38 | 39.85939 | -104.67754 | 5380 ft | 2 kts | 180° |
| 2026-04-30 20:38 | 39.85955 | -104.67754 | 5376 ft | 2 kts | 182° |
| 2026-04-30 20:38 | 39.85972 | -104.67754 | 5377 ft | 2 kts | 181° |
| 2026-04-30 20:39 | 39.86005 | -104.67750 | 5375 ft | 2 kts | 207° |
| 2026-04-30 20:39 | 39.86014 | -104.67736 | 5377 ft | 1 kts | 272° |
| 2026-04-30 20:39 | 39.86014 | -104.67731 | 5378 ft | 0 kts | 272° |
| 2026-04-30 20:40 | 39.86014 | -104.67741 | 5377 ft | 6 kts | 273° |
| 2026-04-30 20:40 | 39.86015 | -104.67853 | 5378 ft | 14 kts | 270° |
| 2026-04-30 20:41 | 39.86014 | -104.68098 | 5380 ft | 16 kts | 270° |
| 2026-04-30 20:41 | 39.86029 | -104.68248 | 5375 ft | 19 kts | 272° |
| 2026-04-30 20:41 | 39.86034 | -104.68431 | 5368 ft | 22 kts | 270° |
| 2026-04-30 20:41 | 39.86032 | -104.68636 | 5368 ft | 24 kts | 270° |
| 2026-04-30 20:42 | 39.86035 | -104.68851 | 5358 ft | 22 kts | 271° |
| 2026-04-30 20:42 | 39.86040 | -104.69055 | 5347 ft | 22 kts | 271° |
| 2026-04-30 20:42 | 39.86031 | -104.69398 | 5337 ft | 12 kts | 245° |
| 2026-04-30 20:43 | 39.85954 | -104.69436 | 5339 ft | 12 kts | 181° |
| 2026-04-30 20:43 | 39.85865 | -104.69438 | 5339 ft | 13 kts | 181° |
| 2026-04-30 20:43 | 39.85770 | -104.69440 | 5337 ft | 14 kts | 181° |
| 2026-04-30 20:44 | 39.85558 | -104.69445 | 5338 ft | 16 kts | 181° |
| 2026-04-30 20:44 | 39.85442 | -104.69440 | 5339 ft | 17 kts | 179° |
| 2026-04-30 20:44 | 39.85292 | -104.69498 | 5336 ft | 10 kts | 257° |
| 2026-04-30 20:45 | 39.85291 | -104.69520 | 5336 ft | 0 kts | 267° |
| 2026-04-30 20:46 | 39.85367 | -104.69655 | 5335 ft | 0 kts | 360° |
| 2026-04-30 20:46 | 39.85449 | -104.69656 | 5337 ft | 43 kts | 360° |
| 2026-04-30 20:47 | 39.86946 | -104.69642 | 5338 ft | 162 kts | 0° |
| 2026-04-30 20:47 | 39.88208 | -104.69622 | 5402 ft | 197 kts | 0° |
| 2026-04-30 20:48 | 39.90965 | -104.70108 | 6714 ft | 204 kts | 320° |
| 2026-04-30 20:48 | 39.91662 | -104.71626 | 7463 ft | 198 kts | 275° |
| 2026-04-30 20:48 | 39.91350 | -104.73282 | 8201 ft | 189 kts | 238° |
| 2026-04-30 20:48 | 39.90684 | -104.74735 | 8960 ft | 180 kts | 242° |
| 2026-04-30 20:49 | 39.90126 | -104.76119 | 9683 ft | 167 kts | 243° |
| 2026-04-30 20:49 | 39.89610 | -104.77423 | 10323 ft | 160 kts | 243° |
| 2026-04-30 20:49 | 39.89055 | -104.78819 | 10381 ft | 190 kts | 243° |
| 2026-04-30 20:50 | 39.87636 | -104.82348 | 10583 ft | 243 kts | 242° |
| 2026-04-30 20:50 | 39.86813 | -104.84368 | 10816 ft | 266 kts | 242° |
| 2026-04-30 20:50 | 39.85904 | -104.86585 | 11079 ft | 289 kts | 242° |
| 2026-04-30 20:50 | 39.84933 | -104.88953 | 11504 ft | 299 kts | 242° |
| 2026-04-30 20:51 | 39.84108 | -104.91428 | 12287 ft | 303 kts | 253° |
| 2026-04-30 20:51 | 39.83042 | -104.96789 | 13850 ft | 309 kts | 256° |
| 2026-04-30 20:51 | 39.82499 | -104.99508 | 14592 ft | 313 kts | 255° |
| 2026-04-30 20:52 | 39.81945 | -105.02272 | 15324 ft | 317 kts | 255° |
| 2026-04-30 20:52 | 39.81386 | -105.05059 | 16013 ft | 320 kts | 255° |
| 2026-04-30 20:52 | 39.80244 | -105.10721 | 17360 ft | 327 kts | 255° |
| 2026-04-30 20:53 | 39.79663 | -105.13595 | 17997 ft | 331 kts | 255° |
| 2026-04-30 20:53 | 39.79074 | -105.16502 | 18635 ft | 334 kts | 255° |
| 2026-04-30 20:53 | 39.78477 | -105.19438 | 19257 ft | 338 kts | 255° |
| 2026-04-30 20:54 | 39.77277 | -105.25372 | 20375 ft | 345 kts | 255° |
| 2026-04-30 20:54 | 39.76670 | -105.28393 | 20927 ft | 348 kts | 255° |
| 2026-04-30 20:54 | 39.76051 | -105.31460 | 21434 ft | 352 kts | 255° |
| 2026-04-30 20:55 | 39.74779 | -105.37685 | 22441 ft | 358 kts | 255° |
| 2026-04-30 20:55 | 39.74137 | -105.40814 | 22961 ft | 361 kts | 255° |
| 2026-04-30 20:55 | 39.73494 | -105.43940 | 23437 ft | 365 kts | 255° |
| 2026-04-30 20:56 | 39.72139 | -105.50533 | 23709 ft | 390 kts | 255° |
| 2026-04-30 20:56 | 39.71431 | -105.53989 | 23832 ft | 402 kts | 255° |
| 2026-04-30 20:56 | 39.69971 | -105.61115 | 24396 ft | 414 kts | 255° |
| 2026-04-30 20:57 | 39.69231 | -105.64738 | 24769 ft | 417 kts | 255° |
| 2026-04-30 20:57 | 39.68524 | -105.68413 | 25031 ft | 422 kts | 257° |
| 2026-04-30 20:57 | 39.67931 | -105.72182 | 25203 ft | 429 kts | 259° |
| 2026-04-30 20:58 | 39.66948 | -105.79894 | 25662 ft | 437 kts | 261° |
| 2026-04-30 20:58 | 39.66477 | -105.83799 | 25976 ft | 439 kts | 261° |
| 2026-04-30 20:58 | 39.65987 | -105.87722 | 26227 ft | 442 kts | 261° |
| 2026-04-30 20:58 | 39.65472 | -105.91661 | 26496 ft | 444 kts | 260° |
| 2026-04-30 20:59 | 39.64380 | -105.99572 | 27062 ft | 447 kts | 259° |
| 2026-04-30 20:59 | 39.63821 | -106.03532 | 27385 ft | 448 kts | 259° |
| 2026-04-30 21:00 | 39.62707 | -106.11447 | 28057 ft | 450 kts | 259° |
| 2026-04-30 21:00 | 39.61579 | -106.19487 | 28480 ft | 456 kts | 259° |
| 2026-04-30 21:01 | 39.60435 | -106.27644 | 28988 ft | 459 kts | 259° |
| 2026-04-30 21:01 | 39.59861 | -106.31725 | 29237 ft | 461 kts | 259° |
| 2026-04-30 21:01 | 39.58708 | -106.39876 | 29724 ft | 464 kts | 259° |
| 2026-04-30 21:02 | 39.58119 | -106.43998 | 30032 ft | 464 kts | 259° |
| 2026-04-30 21:02 | 39.57529 | -106.48119 | 30279 ft | 466 kts | 259° |
| 2026-04-30 21:02 | 39.56934 | -106.52263 | 30429 ft | 469 kts | 259° |
| 2026-04-30 21:02 | 39.56334 | -106.56432 | 30625 ft | 471 kts | 259° |
| 2026-04-30 21:03 | 39.55732 | -106.60608 | 30864 ft | 472 kts | 259° |
| 2026-04-30 21:03 | 39.55130 | -106.64788 | 31076 ft | 473 kts | 259° |
| 2026-04-30 21:03 | 39.54247 | -106.68899 | 31262 ft | 475 kts | 249° |
| 2026-04-30 21:03 | 39.53013 | -106.72866 | 31573 ft | 474 kts | 248° |
| 2026-04-30 21:04 | 39.51775 | -106.76810 | 31958 ft | 472 kts | 248° |
| 2026-04-30 21:04 | 39.50537 | -106.80743 | 32225 ft | 472 kts | 248° |
| 2026-04-30 21:04 | 39.48476 | -106.87287 | 32735 ft | 471 kts | 248° |
| 2026-04-30 21:05 | 39.46839 | -106.92474 | 33106 ft | 471 kts | 248° |
| 2026-04-30 21:05 | 39.45598 | -106.96399 | 33306 ft | 472 kts | 248° |
| 2026-04-30 21:05 | 39.44358 | -107.00324 | 33639 ft | 470 kts | 248° |
| 2026-04-30 21:05 | 39.43123 | -107.04234 | 33956 ft | 469 kts | 248° |
| 2026-04-30 21:06 | 39.41889 | -107.08135 | 34271 ft | 468 kts | 248° |
| 2026-04-30 21:06 | 39.41072 | -107.10709 | 34548 ft | 465 kts | 248° |
| 2026-04-30 21:06 | 39.39845 | -107.14568 | 34955 ft | 463 kts | 248° |
| 2026-04-30 21:06 | 39.38621 | -107.18407 | 35288 ft | 461 kts | 248° |
| 2026-04-30 21:07 | 39.37374 | -107.22222 | 35595 ft | 460 kts | 246° |
| 2026-04-30 21:07 | 39.36052 | -107.25985 | 35863 ft | 460 kts | 245° |
| 2026-04-30 21:07 | 39.34667 | -107.29717 | 35991 ft | 461 kts | 244° |
| 2026-04-30 21:07 | 39.33253 | -107.33428 | 36013 ft | 460 kts | 244° |
| 2026-04-30 21:08 | 39.30416 | -107.40840 | 36012 ft | 461 kts | 244° |
| 2026-04-30 21:08 | 39.27615 | -107.48291 | 36008 ft | 460 kts | 244° |
| 2026-04-30 21:09 | 39.24854 | -107.55726 | 36009 ft | 459 kts | 244° |
| 2026-04-30 21:09 | 39.22086 | -107.63158 | 36009 ft | 459 kts | 244° |
| 2026-04-30 21:10 | 39.19303 | -107.70577 | 36009 ft | 460 kts | 244° |
| 2026-04-30 21:10 | 39.16515 | -107.77993 | 36001 ft | 460 kts | 244° |
| 2026-04-30 21:11 | 39.13720 | -107.85410 | 36003 ft | 460 kts | 244° |
| 2026-04-30 21:11 | 39.10922 | -107.92830 | 36001 ft | 461 kts | 244° |
| 2026-04-30 21:12 | 39.08129 | -108.00197 | 35997 ft | 461 kts | 244° |
| 2026-04-30 21:12 | 39.05308 | -108.07615 | 36000 ft | 462 kts | 244° |
| 2026-04-30 21:13 | 39.02477 | -108.15033 | 36001 ft | 462 kts | 244° |
| 2026-04-30 21:13 | 38.99646 | -108.22457 | 36010 ft | 462 kts | 244° |
| 2026-04-30 21:14 | 38.96814 | -108.29876 | 36034 ft | 461 kts | 244° |
| 2026-04-30 21:14 | 38.93988 | -108.37240 | 36047 ft | 458 kts | 244° |
| 2026-04-30 21:15 | 38.91167 | -108.44555 | 36035 ft | 456 kts | 244° |
| 2026-04-30 21:15 | 38.88363 | -108.51844 | 36030 ft | 455 kts | 244° |
| 2026-04-30 21:16 | 38.85569 | -108.59070 | 36014 ft | 455 kts | 244° |
| 2026-04-30 21:16 | 38.82746 | -108.66352 | 36003 ft | 456 kts | 244° |
| 2026-04-30 21:17 | 38.79915 | -108.73651 | 35994 ft | 458 kts | 244° |
| 2026-04-30 21:17 | 38.77074 | -108.80964 | 36005 ft | 459 kts | 243° |
| 2026-04-30 21:18 | 38.74225 | -108.88272 | 36015 ft | 458 kts | 243° |
| 2026-04-30 21:18 | 38.71367 | -108.95563 | 36030 ft | 457 kts | 243° |
| 2026-04-30 21:19 | 38.68515 | -109.02827 | 36036 ft | 456 kts | 243° |
| 2026-04-30 21:19 | 38.65670 | -109.10074 | 36027 ft | 456 kts | 243° |
| 2026-04-30 21:20 | 38.62818 | -109.17312 | 36018 ft | 456 kts | 243° |
| 2026-04-30 21:20 | 38.59959 | -109.24545 | 36005 ft | 457 kts | 243° |
| 2026-04-30 21:21 | 38.57109 | -109.31747 | 36011 ft | 457 kts | 243° |
| 2026-04-30 21:22 | 38.52809 | -109.42620 | 36023 ft | 457 kts | 243° |
| 2026-04-30 21:23 | 38.47061 | -109.57037 | 36033 ft | 454 kts | 243° |
| 2026-04-30 21:23 | 38.42755 | -109.67795 | 36032 ft | 453 kts | 243° |
| 2026-04-30 21:24 | 38.39893 | -109.74944 | 36030 ft | 452 kts | 243° |
| 2026-04-30 21:24 | 38.37028 | -109.82078 | 36025 ft | 452 kts | 243° |
| 2026-04-30 21:25 | 38.32725 | -109.92753 | 36012 ft | 452 kts | 243° |
| 2026-04-30 21:26 | 38.28420 | -110.03365 | 36012 ft | 452 kts | 243° |
| 2026-04-30 21:27 | 38.24494 | -110.14264 | 36002 ft | 452 kts | 247° |
| 2026-04-30 21:27 | 38.22055 | -110.21656 | 35998 ft | 453 kts | 247° |
| 2026-04-30 21:28 | 38.18270 | -110.32676 | 36007 ft | 454 kts | 246° |
| 2026-04-30 21:29 | 38.14415 | -110.43651 | 36017 ft | 453 kts | 246° |
| 2026-04-30 21:30 | 38.08027 | -110.61860 | 36019 ft | 452 kts | 246° |
| 2026-04-30 21:31 | 38.01602 | -110.80089 | 35996 ft | 453 kts | 246° |
| 2026-04-30 21:32 | 37.97705 | -110.91054 | 35994 ft | 455 kts | 246° |
| 2026-04-30 21:32 | 37.95103 | -110.98357 | 36000 ft | 454 kts | 246° |
| 2026-04-30 21:33 | 37.91226 | -111.09244 | 36006 ft | 454 kts | 246° |
| 2026-04-30 21:34 | 37.88626 | -111.16522 | 36001 ft | 454 kts | 246° |
| 2026-04-30 21:34 | 37.84710 | -111.27426 | 36010 ft | 454 kts | 245° |
| 2026-04-30 21:35 | 37.82085 | -111.34690 | 36011 ft | 453 kts | 245° |
| 2026-04-30 21:35 | 37.79473 | -111.41931 | 36009 ft | 453 kts | 245° |
| 2026-04-30 21:36 | 37.76857 | -111.49190 | 36007 ft | 453 kts | 245° |